createdAt,value
2023-08-15T00:02:27.327Z,7.75
2023-08-15T00:04:55.560Z,7.43
2023-08-15T00:07:23.616Z,7.55
2023-08-15T00:09:51.789Z,7.13
2023-08-15T00:12:19.871Z,7.20
2023-08-15T00:14:47.948Z,6.15
2023-08-15T00:17:17.816Z,7.03
2023-08-15T00:19:46.414Z,6.63
2023-08-15T00:22:14.483Z,7.63
2023-08-15T00:24:42.583Z,6.82
2023-08-15T00:27:10.845Z,6.78
2023-08-15T00:29:38.913Z,6.35
2023-08-15T00:32:08.720Z,7.25
2023-08-15T00:34:37.233Z,7.10
2023-08-15T00:37:05.772Z,6.88
2023-08-15T00:39:33.860Z,7.25
2023-08-15T00:42:02.918Z,6.95
2023-08-15T00:44:30.970Z,6.25
2023-08-15T00:47:00.221Z,8.07
2023-08-15T00:49:30.190Z,7.22
2023-08-15T00:51:58.627Z,6.25
2023-08-15T00:54:27.232Z,7.35
2023-08-15T00:56:55.954Z,6.82
2023-08-15T00:59:24.761Z,7.40
2023-08-15T01:01:53.102Z,7.20
2023-08-15T01:04:21.782Z,7.78
2023-08-15T01:06:50.712Z,7.15
2023-08-15T01:09:18.835Z,8.32
2023-08-15T01:12:01.961Z,7.78
2023-08-15T01:15:01.178Z,6.97
2023-08-15T01:17:56.060Z,6.97
2023-08-15T01:20:32.766Z,6.85
2023-08-15T01:23:08.972Z,6.60
2023-08-15T01:25:43.086Z,6.97
2023-08-15T01:28:16.042Z,6.00
2023-08-15T01:31:28.373Z,6.13
2023-08-15T01:34:55.094Z,6.55
2023-08-15T01:37:31.204Z,5.40
2023-08-15T01:40:02.339Z,6.40
2023-08-15T01:42:34.600Z,6.63
2023-08-15T01:45:04.332Z,6.60
2023-08-15T01:47:33.914Z,7.38
2023-08-15T01:50:02.477Z,7.25
2023-08-15T01:52:30.847Z,6.82
2023-08-15T01:54:59.538Z,6.55
2023-08-15T01:57:28.324Z,6.93
2023-08-15T02:02:24.931Z,6.05
2023-08-15T02:04:54.176Z,5.75
2023-08-15T02:07:22.363Z,6.22
2023-08-15T02:09:52.184Z,5.47
2023-08-15T02:12:20.441Z,6.03
2023-08-15T02:14:48.656Z,5.72
2023-08-15T02:17:16.845Z,5.85
2023-08-15T02:19:46.914Z,5.95
2023-08-15T02:22:18.095Z,5.10
2023-08-15T02:24:46.874Z,5.65
2023-08-15T02:27:15.530Z,5.75
2023-08-15T02:29:43.755Z,5.40
2023-08-15T02:32:11.719Z,6.13
2023-08-15T02:34:39.727Z,6.57
2023-08-15T02:37:08.028Z,6.18
2023-08-15T02:39:36.263Z,5.85
2023-08-15T02:42:04.387Z,6.00
2023-08-15T02:44:34.631Z,6.07
2023-08-15T02:47:02.875Z,5.55
2023-08-15T02:49:31.678Z,5.78
2023-08-15T02:52:01.229Z,5.65
2023-08-15T02:54:29.334Z,5.82
2023-08-15T02:56:57.638Z,5.82
2023-08-15T02:59:25.987Z,6.00
2023-08-15T03:01:54.113Z,5.90
2023-08-15T03:04:22.427Z,5.68
2023-08-15T03:06:50.968Z,6.20
2023-08-15T03:09:19.201Z,6.35
2023-08-15T03:11:47.235Z,5.53
2023-08-15T03:14:15.431Z,6.13
2023-08-15T03:16:44.413Z,6.63
2023-08-15T03:19:13.316Z,5.85
2023-08-15T03:21:41.443Z,5.90
2023-08-15T03:24:09.657Z,5.72
2023-08-15T03:26:38.138Z,5.80
2023-08-15T03:29:06.682Z,6.18
2023-08-15T03:31:35.212Z,6.38
2023-08-15T03:34:03.810Z,6.43
2023-08-15T03:36:32.118Z,6.25
2023-08-15T03:39:00.451Z,6.28
2023-08-15T03:41:28.680Z,5.90
2023-08-15T03:43:57.504Z,5.68
2023-08-15T03:46:25.842Z,5.57
2023-08-15T03:48:55.503Z,6.97
2023-08-15T03:51:43.932Z,5.43
2023-08-15T03:54:11.904Z,5.72
2023-08-15T03:56:40.092Z,6.25
2023-08-15T03:59:08.498Z,5.90
2023-08-15T04:01:36.875Z,5.43
2023-08-15T04:04:06.113Z,5.55
2023-08-15T04:06:34.522Z,4.97
2023-08-15T04:09:03.290Z,5.10
2023-08-15T04:11:31.508Z,5.13
2023-08-15T04:14:00.488Z,4.93
2023-08-15T04:16:29.089Z,4.93
2023-08-15T04:18:58.013Z,5.28
2023-08-15T04:21:26.297Z,5.20
2023-08-15T04:23:54.310Z,4.45
2023-08-15T04:26:22.846Z,4.30
2023-08-15T04:28:51.092Z,4.40
2023-08-15T04:31:19.506Z,4.20
2023-08-15T04:33:47.659Z,4.82
2023-08-15T04:36:15.920Z,6.22
2023-08-15T04:38:44.225Z,4.95
2023-08-15T04:41:13.136Z,4.65
2023-08-15T04:43:41.624Z,5.32
2023-08-15T04:46:10.089Z,5.07
2023-08-15T04:48:38.079Z,5.18
2023-08-15T04:51:06.198Z,5.50
2023-08-15T04:53:35.167Z,5.55
2023-08-15T04:56:04.472Z,5.45
2023-08-15T04:58:33.280Z,5.40
2023-08-15T05:01:01.539Z,5.45
2023-08-15T05:03:29.718Z,5.25
2023-08-15T05:05:58.160Z,5.30
2023-08-15T05:08:27.098Z,5.07
2023-08-15T05:10:55.698Z,5.07
2023-08-15T05:13:24.718Z,5.32
2023-08-15T05:15:54.572Z,5.55
2023-08-15T05:18:23.353Z,5.10
2023-08-15T05:20:51.731Z,5.28
2023-08-15T05:23:20.903Z,4.85
2023-08-15T05:25:49.560Z,4.57
2023-08-15T05:28:18.716Z,5.13
2023-08-15T05:30:47.087Z,5.60
2023-08-15T05:33:15.638Z,4.95
2023-08-15T05:35:43.951Z,4.65
2023-08-15T05:38:12.546Z,4.70
2023-08-15T05:40:41.081Z,5.07
2023-08-15T05:43:09.504Z,4.90
2023-08-15T05:45:38.155Z,4.78
2023-08-15T05:48:09.554Z,4.45
2023-08-15T05:50:40.275Z,4.90
2023-08-15T05:53:08.540Z,4.75
2023-08-15T05:55:37.087Z,4.53
2023-08-15T05:58:05.940Z,4.28
2023-08-15T06:00:35.322Z,4.55
2023-08-15T06:03:03.487Z,4.70
2023-08-15T06:05:32.332Z,4.68
2023-08-15T06:08:00.557Z,4.45
2023-08-15T06:10:28.576Z,4.50
2023-08-15T06:12:56.933Z,4.85
2023-08-15T06:15:25.391Z,4.53
2023-08-15T06:17:53.470Z,4.63
2023-08-15T06:20:22.456Z,4.03
2023-08-15T06:22:50.494Z,4.22
2023-08-15T06:25:18.582Z,4.82
2023-08-15T06:27:46.803Z,4.70
2023-08-15T06:30:15.050Z,4.18
2023-08-15T06:32:43.429Z,4.07
2023-08-15T06:35:11.793Z,4.18
2023-08-15T06:37:39.995Z,4.18
2023-08-15T06:40:10.184Z,3.80
2023-08-15T06:42:38.731Z,4.47
2023-08-15T06:45:12.681Z,4.10
2023-08-15T06:47:41.268Z,4.40
2023-08-15T06:50:09.943Z,3.90
2023-08-15T06:52:38.510Z,3.50
2023-08-15T06:55:08.139Z,3.97
2023-08-15T06:57:36.858Z,4.15
2023-08-15T07:00:13.261Z,4.15
2023-08-15T07:02:42.652Z,4.15
2023-08-15T07:05:11.972Z,3.88
2023-08-15T07:07:40.246Z,3.70
2023-08-15T07:10:09.271Z,3.47
2023-08-15T07:12:37.395Z,3.42
2023-08-15T07:15:06.504Z,3.28
2023-08-15T07:17:34.714Z,3.30
2023-08-15T07:20:03.114Z,3.10
2023-08-15T07:22:31.234Z,3.20
2023-08-15T07:24:59.553Z,3.20
2023-08-15T07:27:27.632Z,3.00
2023-08-15T07:29:56.034Z,3.28
2023-08-15T07:32:24.837Z,2.92
2023-08-15T07:34:53.303Z,2.58
2023-08-15T07:37:21.999Z,2.95
2023-08-15T07:39:59.918Z,2.97
2023-08-15T07:42:28.666Z,2.92
2023-08-15T07:44:56.988Z,2.83
2023-08-15T07:47:25.164Z,2.67
2023-08-15T07:50:17.772Z,3.05
2023-08-15T07:52:47.353Z,2.60
2023-08-15T07:55:16.155Z,3.05
2023-08-15T07:57:45.472Z,3.03
2023-08-15T08:00:17.264Z,2.60
2023-08-15T08:02:46.744Z,3.08
2023-08-15T08:05:17.437Z,3.13
2023-08-15T08:07:46.968Z,2.60
2023-08-15T08:10:15.202Z,2.75
2023-08-15T08:12:44.231Z,2.60
2023-08-15T08:15:12.466Z,2.63
2023-08-15T08:17:40.605Z,2.42
2023-08-15T08:20:18.806Z,2.60
2023-08-15T08:22:47.463Z,2.75
2023-08-15T08:25:25.177Z,2.67
2023-08-15T08:27:54.587Z,2.35
2023-08-15T08:30:26.685Z,2.30
2023-08-15T08:32:56.214Z,2.78
2023-08-15T08:35:24.364Z,2.85
2023-08-15T08:37:52.970Z,2.88
2023-08-15T08:40:21.441Z,2.65
2023-08-15T08:42:50.103Z,2.42
2023-08-15T08:45:24.399Z,2.63
2023-08-15T08:47:55.477Z,2.55
2023-08-15T08:50:23.980Z,2.83
2023-08-15T08:52:53.760Z,2.72
2023-08-15T08:55:24.819Z,2.60
2023-08-15T08:57:54.942Z,2.70
2023-08-15T09:00:30.765Z,2.35
2023-08-15T09:02:59.629Z,2.63
2023-08-15T09:05:28.818Z,2.60
2023-08-15T09:07:57.798Z,3.10
2023-08-15T09:10:26.392Z,2.72
2023-08-15T09:13:00.873Z,2.35
2023-08-15T09:15:32.057Z,2.65
2023-08-15T09:18:06.428Z,2.70
2023-08-15T09:20:47.830Z,2.58
2023-08-15T09:23:17.611Z,2.53
2023-08-15T09:25:45.708Z,2.95
2023-08-15T09:28:14.690Z,2.97
2023-08-15T09:30:54.784Z,2.90
2023-08-15T09:33:23.065Z,2.92
2023-08-15T09:35:58.706Z,2.67
2023-08-15T09:38:29.010Z,2.90
2023-08-15T09:40:59.347Z,3.05
2023-08-15T09:43:27.609Z,2.53
2023-08-15T09:46:00.770Z,2.50
2023-08-15T09:48:30.120Z,3.08
2023-08-15T09:51:01.160Z,2.80
2023-08-15T09:53:33.535Z,2.75
2023-08-15T09:56:02.091Z,2.63
2023-08-15T09:58:30.497Z,2.28
2023-08-15T10:00:59.895Z,2.83
2023-08-15T10:03:40.282Z,2.25
2023-08-15T10:06:14.403Z,2.17
2023-08-15T10:08:45.686Z,2.08
2023-08-15T10:11:14.999Z,2.20
2023-08-15T10:13:45.820Z,2.00
2023-08-15T10:16:16.034Z,1.90
2023-08-15T10:18:58.903Z,2.28
2023-08-15T10:21:46.779Z,2.17
2023-08-15T10:24:18.504Z,1.98
2023-08-15T10:26:47.979Z,2.03
2023-08-15T10:29:16.444Z,2.28
2023-08-15T10:31:45.621Z,2.17
2023-08-15T10:34:13.982Z,2.10
2023-08-15T10:36:46.216Z,2.72
2023-08-15T10:39:16.370Z,2.10
2023-08-15T10:41:44.759Z,2.55
2023-08-15T10:44:14.490Z,2.40
2023-08-15T10:46:43.719Z,2.23
2023-08-15T10:49:15.902Z,2.50
2023-08-15T10:51:44.788Z,2.67
2023-08-15T10:54:16.896Z,2.58
2023-08-15T10:56:45.333Z,2.65
2023-08-15T10:59:16.483Z,2.47
2023-08-15T11:01:48.805Z,2.38
2023-08-15T11:04:25.177Z,2.20
2023-08-15T11:06:54.146Z,2.30
2023-08-15T11:09:32.661Z,2.30
2023-08-15T11:12:10.540Z,2.10
2023-08-15T11:14:38.715Z,2.10
2023-08-15T11:17:08.502Z,2.20
2023-08-15T11:19:36.784Z,1.92
2023-08-15T11:22:05.639Z,2.10
2023-08-15T11:24:34.208Z,2.10
2023-08-15T11:27:03.546Z,2.35
2023-08-15T11:29:31.524Z,2.10
2023-08-15T11:32:02.463Z,2.35
2023-08-15T11:34:31.138Z,2.17
2023-08-15T11:36:59.210Z,2.10
2023-08-15T11:39:27.321Z,2.03
2023-08-15T11:41:55.820Z,2.08
2023-08-15T11:44:24.178Z,1.77
2023-08-15T11:46:55.294Z,2.00
2023-08-15T11:49:25.089Z,1.88
2023-08-15T11:52:04.293Z,1.63
2023-08-15T11:54:32.673Z,2.20
2023-08-15T11:57:00.896Z,2.10
2023-08-15T11:59:32.977Z,2.00
2023-08-15T12:02:02.788Z,1.90
2023-08-15T12:04:37.208Z,1.40
2023-08-15T12:07:05.766Z,1.70
2023-08-15T12:09:33.974Z,2.08
2023-08-15T12:12:04.190Z,2.13
2023-08-15T12:14:42.168Z,2.03
2023-08-15T12:17:17.901Z,1.77
2023-08-15T12:19:46.002Z,1.63
2023-08-15T12:22:14.525Z,1.70
2023-08-15T12:24:42.958Z,1.80
2023-08-15T12:27:11.009Z,2.10
2023-08-15T12:30:11.166Z,2.00
2023-08-15T12:32:27.411Z,1.80
2023-08-15T12:34:55.600Z,1.88
2023-08-15T12:37:24.962Z,1.85
2023-08-15T12:39:53.557Z,2.10
2023-08-15T12:42:21.643Z,1.75
2023-08-15T12:44:49.929Z,2.08
2023-08-15T12:47:18.601Z,2.75
2023-08-15T12:49:48.380Z,2.00
2023-08-15T12:52:16.825Z,1.85
2023-08-15T12:54:45.127Z,2.10
2023-08-15T12:57:13.835Z,2.10
2023-08-15T12:59:42.140Z,2.67
2023-08-15T13:02:10.638Z,1.98
2023-08-15T13:04:39.396Z,2.20
2023-08-15T13:07:07.692Z,2.40
2023-08-15T13:09:36.024Z,1.90
2023-08-15T13:12:05.994Z,2.08
2023-08-15T13:14:34.124Z,2.20
2023-08-15T13:17:02.423Z,1.90
2023-08-15T13:19:31.121Z,2.13
2023-08-15T13:21:59.436Z,2.10
2023-08-15T13:24:29.320Z,2.03
2023-08-15T13:26:58.080Z,2.00
2023-08-15T13:29:26.369Z,2.00
2023-08-15T13:31:54.573Z,2.00
2023-08-15T13:34:24.004Z,2.15
2023-08-15T13:36:52.128Z,2.47
2023-08-15T13:39:20.458Z,2.28
2023-08-15T13:41:48.534Z,2.40
2023-08-15T13:44:17.081Z,2.20
2023-08-15T13:46:46.420Z,2.53
2023-08-15T13:49:14.921Z,2.67
2023-08-15T13:51:43.674Z,3.15
2023-08-15T13:54:11.981Z,2.67
2023-08-15T13:56:40.031Z,2.65
2023-08-15T13:59:08.498Z,2.42
2023-08-15T14:01:37.964Z,2.60
2023-08-15T14:04:06.412Z,2.70
2023-08-15T14:06:34.567Z,3.35
2023-08-15T14:09:03.487Z,2.70
2023-08-15T14:11:32.036Z,2.88
2023-08-15T14:14:00.181Z,3.03
2023-08-15T14:16:28.477Z,2.55
2023-08-15T14:18:56.772Z,2.95
2023-08-15T14:21:24.972Z,2.50
2023-08-15T14:23:53.246Z,2.90
2023-08-15T14:26:21.772Z,2.13
2023-08-15T14:28:49.980Z,2.40
2023-08-15T14:31:18.381Z,2.58
2023-08-15T14:33:46.575Z,2.40
2023-08-15T14:36:14.818Z,4.82
2023-08-15T14:38:43.486Z,3.33
2023-08-15T14:41:13.601Z,2.47
2023-08-15T14:43:41.763Z,2.70
2023-08-15T14:46:09.986Z,2.90
2023-08-15T14:48:38.861Z,2.83
2023-08-15T14:51:07.545Z,3.10
2023-08-15T14:53:36.045Z,2.60
2023-08-15T14:56:04.638Z,2.42
2023-08-15T14:58:33.197Z,2.15
2023-08-15T15:01:01.455Z,3.08
2023-08-15T15:03:30.043Z,2.75
2023-08-15T15:05:58.230Z,3.13
2023-08-15T15:08:27.532Z,2.53
2023-08-15T15:10:56.124Z,2.30
2023-08-15T15:13:25.090Z,2.53
2023-08-15T15:15:54.616Z,2.92
2023-08-15T15:18:23.970Z,2.53
2023-08-15T15:20:52.062Z,2.42
2023-08-15T15:23:20.709Z,2.20
2023-08-15T15:25:49.846Z,2.65
2023-08-15T15:28:18.260Z,2.30
2023-08-15T15:30:46.593Z,2.78
2023-08-15T15:33:15.029Z,2.28
2023-08-15T15:35:44.148Z,3.55
2023-08-15T15:38:12.471Z,3.15
2023-08-15T15:40:42.179Z,2.70
2023-08-15T15:43:10.982Z,2.65
2023-08-15T15:45:43.709Z,2.50
2023-08-15T15:48:11.992Z,2.20
2023-08-15T15:50:40.364Z,2.30
2023-08-15T15:53:08.812Z,2.38
2023-08-15T15:55:37.072Z,2.28
2023-08-15T15:58:05.750Z,2.40
2023-08-15T16:00:34.547Z,2.35
2023-08-15T16:03:03.524Z,2.85
2023-08-15T16:05:32.298Z,2.78
2023-08-15T16:08:00.644Z,2.47
2023-08-15T16:10:29.807Z,3.28
2023-08-15T16:12:58.316Z,2.17
2023-08-15T16:15:26.942Z,2.42
2023-08-15T16:17:56.687Z,3.03
2023-08-15T16:20:25.335Z,2.50
2023-08-15T16:22:54.801Z,2.75
2023-08-15T16:25:23.857Z,2.95
2023-08-15T16:27:52.735Z,2.95
2023-08-15T16:30:21.168Z,2.58
2023-08-15T16:32:49.593Z,3.22
2023-08-15T16:35:18.330Z,2.60
2023-08-15T16:37:46.963Z,3.20
2023-08-15T16:40:15.362Z,2.38
2023-08-15T16:42:43.697Z,3.40
2023-08-15T16:45:12.179Z,3.08
2023-08-15T16:47:40.979Z,3.28
2023-08-15T16:50:09.770Z,2.90
2023-08-15T16:52:38.144Z,2.97
2023-08-15T16:55:06.661Z,2.83
2023-08-15T16:57:35.249Z,3.03
2023-08-15T17:00:03.484Z,2.75
2023-08-15T17:02:32.655Z,2.80
2023-08-15T17:05:01.346Z,2.70
2023-08-15T17:07:30.093Z,3.33
2023-08-15T17:09:58.354Z,3.20
2023-08-15T17:12:26.706Z,2.90
2023-08-15T17:14:56.417Z,3.00
2023-08-15T17:17:25.146Z,2.80
2023-08-15T17:19:54.148Z,2.80
2023-08-15T17:22:23.127Z,2.72
2023-08-15T17:24:52.043Z,2.90
2023-08-15T17:27:20.621Z,2.83
2023-08-15T17:29:48.749Z,2.88
2023-08-15T17:32:17.082Z,2.85
2023-08-15T17:34:45.571Z,3.17
2023-08-15T17:37:13.917Z,3.90
2023-08-15T17:39:42.932Z,3.75
2023-08-15T17:42:11.421Z,3.80
2023-08-15T17:44:39.841Z,4.07
2023-08-15T17:47:08.380Z,4.68
2023-08-15T17:49:36.739Z,4.00
2023-08-15T17:52:05.285Z,3.53
2023-08-15T17:54:33.699Z,3.53
2023-08-15T17:57:02.249Z,3.92
2023-08-15T17:59:30.455Z,4.55
2023-08-15T18:02:00.802Z,3.63
2023-08-15T18:04:29.684Z,4.00
2023-08-15T18:06:58.086Z,3.92
2023-08-15T18:09:26.367Z,3.38
2023-08-15T18:11:54.886Z,3.05
2023-08-15T18:14:23.830Z,3.35
2023-08-15T18:16:51.865Z,3.47
2023-08-15T18:19:21.856Z,4.30
2023-08-15T18:21:50.900Z,3.80
2023-08-15T18:24:19.853Z,4.38
2023-08-15T18:26:47.914Z,4.18
2023-08-15T18:29:16.130Z,3.70
2023-08-15T18:31:44.351Z,7.32
2023-08-15T18:34:12.488Z,5.68
2023-08-15T18:36:40.908Z,5.22
2023-08-15T18:39:11.620Z,4.82
2023-08-15T18:41:39.681Z,4.45
2023-08-15T18:44:08.654Z,4.70
2023-08-15T18:46:40.384Z,4.10
2023-08-15T18:49:08.716Z,4.82
2023-08-15T18:51:36.842Z,4.68
2023-08-15T18:54:05.790Z,4.85
2023-08-15T18:56:35.497Z,4.25
2023-08-15T18:59:04.001Z,5.05
2023-08-15T19:01:32.361Z,5.15
2023-08-15T19:04:00.814Z,4.32
2023-08-15T19:06:29.862Z,4.13
2023-08-15T19:08:58.460Z,4.78
2023-08-15T19:11:27.067Z,5.65
2023-08-15T19:13:55.351Z,4.80
2023-08-15T19:16:24.132Z,5.10
2023-08-15T19:18:52.987Z,4.28
2023-08-15T19:21:21.350Z,4.80
2023-08-15T19:23:49.645Z,4.53
2023-08-15T19:26:18.682Z,4.78
2023-08-15T19:28:50.270Z,4.45
2023-08-15T19:31:19.063Z,4.05
2023-08-15T19:33:49.547Z,3.92
2023-08-15T19:36:18.170Z,3.87
2023-08-15T19:38:46.371Z,4.28
2023-08-15T19:41:14.922Z,4.10
2023-08-15T19:43:43.790Z,4.03
2023-08-15T19:46:12.203Z,4.28
2023-08-15T19:48:40.617Z,4.07
2023-08-15T19:51:08.880Z,3.63
2023-08-15T19:53:37.016Z,4.10
2023-08-15T19:56:05.419Z,4.05
2023-08-15T19:58:34.649Z,4.45
2023-08-15T20:01:02.971Z,4.18
2023-08-15T20:03:32.066Z,3.70
2023-08-15T20:06:00.459Z,4.20
2023-08-15T20:08:28.784Z,3.70
2023-08-15T20:11:01.637Z,3.85
2023-08-15T20:13:30.748Z,3.40
2023-08-15T20:15:59.766Z,4.03
2023-08-15T20:18:28.816Z,4.35
2023-08-15T20:21:00.193Z,4.63
2023-08-15T20:23:28.539Z,4.85
2023-08-15T20:25:57.186Z,4.63
2023-08-15T20:28:26.302Z,4.63
2023-08-15T20:30:55.583Z,4.75
2023-08-15T20:33:25.321Z,4.18
2023-08-15T20:35:55.908Z,3.70
2023-08-15T20:38:24.834Z,4.18
2023-08-15T20:40:56.074Z,5.88
2023-08-15T20:43:25.239Z,6.95
2023-08-15T20:45:55.017Z,5.70
2023-08-15T20:48:24.129Z,4.63
2023-08-15T20:50:52.928Z,3.67
2023-08-15T20:53:21.617Z,4.18
2023-08-15T20:55:50.086Z,4.70
2023-08-15T20:58:19.169Z,4.57
2023-08-15T21:00:47.657Z,4.90
2023-08-15T21:03:16.253Z,4.95
2023-08-15T21:05:44.915Z,4.40
2023-08-15T21:08:13.258Z,4.68
2023-08-15T21:10:41.637Z,4.32
2023-08-15T21:13:10.145Z,4.60
2023-08-15T21:15:39.880Z,4.85
2023-08-15T21:18:08.678Z,4.70
2023-08-15T21:20:36.899Z,4.45
2023-08-15T21:23:06.165Z,5.45
2023-08-15T21:25:34.328Z,4.10
2023-08-15T21:28:03.368Z,5.07
2023-08-15T21:30:31.667Z,4.80
2023-08-15T21:32:59.859Z,4.70
2023-08-15T21:35:28.172Z,4.68
2023-08-15T21:37:56.369Z,4.28
2023-08-15T21:40:24.576Z,5.20
2023-08-15T21:42:53.387Z,4.93
2023-08-15T21:45:21.628Z,4.63
2023-08-15T21:47:49.754Z,4.50
2023-08-15T21:50:18.064Z,5.43
2023-08-15T21:52:46.171Z,4.88
2023-08-15T21:55:14.401Z,5.45
2023-08-15T21:57:43.193Z,5.53
2023-08-15T22:00:12.675Z,5.43
2023-08-15T22:02:40.752Z,4.80
2023-08-15T22:05:09.507Z,6.80
2023-08-15T22:07:37.983Z,4.40
2023-08-15T22:10:07.513Z,4.90
2023-08-15T22:12:36.019Z,5.13
2023-08-15T22:15:05.526Z,3.88
2023-08-15T22:17:45.591Z,4.70
2023-08-15T22:20:16.137Z,5.03
2023-08-15T22:22:44.526Z,4.40
2023-08-15T22:25:12.848Z,4.85
2023-08-15T22:27:41.278Z,5.22
2023-08-15T22:30:10.134Z,4.63
2023-08-15T22:32:38.455Z,4.95
2023-08-15T22:35:07.379Z,4.35
2023-08-15T22:37:35.854Z,5.10
2023-08-15T22:40:05.159Z,4.55
2023-08-15T22:42:34.047Z,4.47
2023-08-15T22:45:02.441Z,4.90
2023-08-15T22:47:30.847Z,4.72
2023-08-15T22:49:59.296Z,5.18
2023-08-15T22:52:27.822Z,4.38
2023-08-15T22:54:56.607Z,4.13
2023-08-15T22:57:25.145Z,4.63
2023-08-15T22:59:54.372Z,4.28
2023-08-15T23:02:22.589Z,4.88
2023-08-15T23:04:53.937Z,4.57
2023-08-15T23:07:22.288Z,4.90
2023-08-15T23:09:50.809Z,4.97
2023-08-15T23:12:19.064Z,4.78
2023-08-15T23:14:47.251Z,4.72
2023-08-15T23:17:15.812Z,4.65
2023-08-15T23:19:44.456Z,4.85
2023-08-15T23:22:12.644Z,4.65
2023-08-15T23:24:40.876Z,4.50
2023-08-15T23:27:09.327Z,4.72
2023-08-15T23:29:37.589Z,5.13
2023-08-15T23:32:06.146Z,4.40
2023-08-15T23:34:34.664Z,4.28
2023-08-15T23:37:02.865Z,4.75
2023-08-15T23:39:31.106Z,4.57
2023-08-15T23:41:59.407Z,4.95
2023-08-15T23:44:27.744Z,4.82
2023-08-15T23:46:56.307Z,4.80
2023-08-15T23:49:24.671Z,5.57
2023-08-15T23:51:52.939Z,4.47
2023-08-15T23:54:21.343Z,4.55
2023-08-15T23:56:49.863Z,4.90
2023-08-15T23:59:18.077Z,4.70
